createdAt,value
2022-09-06T00:00:05.101Z,60.18
2022-09-06T00:01:24.414Z,60.61
2022-09-06T00:02:32.093Z,60.78
2022-09-06T00:03:33.862Z,61.10
2022-09-06T00:04:35.898Z,61.35
2022-09-06T00:05:38.347Z,61.66
2022-09-06T00:06:40.041Z,61.86
2022-09-06T00:07:41.930Z,62.07
2022-09-06T00:08:45.510Z,62.33
2022-09-06T00:09:47.173Z,62.81
2022-09-06T00:11:00.375Z,63.90
2022-09-06T00:12:03.032Z,63.67
2022-09-06T00:13:08.058Z,62.46
2022-09-06T00:14:09.803Z,60.74
2022-09-06T00:15:11.830Z,59.10
2022-09-06T00:16:17.182Z,56.83
2022-09-06T00:17:19.663Z,55.43
2022-09-06T00:18:22.824Z,55.25
2022-09-06T00:19:24.690Z,55.68
2022-09-06T00:20:27.437Z,56.27
2022-09-06T00:21:31.046Z,56.90
2022-09-06T00:22:32.706Z,57.51
2022-09-06T00:23:34.491Z,57.86
2022-09-06T00:24:37.255Z,58.37
2022-09-06T00:25:38.998Z,58.81
2022-09-06T00:26:40.916Z,59.11
2022-09-06T00:27:42.612Z,59.53
2022-09-06T00:28:44.797Z,59.76
2022-09-06T00:29:46.477Z,60.18
2022-09-06T00:30:48.234Z,60.45
2022-09-06T00:31:50.001Z,60.54
2022-09-06T00:32:52.958Z,60.76
2022-09-06T00:33:54.661Z,61.01
2022-09-06T00:34:56.347Z,61.18
2022-09-06T00:36:01.293Z,61.31
2022-09-06T00:37:03.077Z,61.55
2022-09-06T00:38:04.750Z,61.78
2022-09-06T00:39:06.509Z,62.08
2022-09-06T00:40:08.961Z,62.23
2022-09-06T00:41:14.021Z,62.36
2022-09-06T00:42:15.706Z,62.80
2022-09-06T00:43:17.405Z,63.74
2022-09-06T00:44:19.594Z,63.58
2022-09-06T00:45:21.794Z,62.37
2022-09-06T00:46:28.823Z,60.63
2022-09-06T00:47:31.001Z,58.74
2022-09-06T00:48:34.705Z,56.38
2022-09-06T00:49:50.788Z,55.16
2022-09-06T00:50:57.492Z,55.14
2022-09-06T00:52:07.827Z,55.68
2022-09-06T00:53:10.367Z,56.34
2022-09-06T00:54:12.171Z,56.98
2022-09-06T00:55:14.825Z,57.50
2022-09-06T00:56:16.749Z,58.01
2022-09-06T00:57:19.013Z,58.49
2022-09-06T00:58:21.523Z,58.90
2022-09-06T00:59:27.213Z,59.22
2022-09-06T01:00:28.894Z,59.58
2022-09-06T01:01:30.872Z,59.89
2022-09-06T01:02:32.782Z,60.16
2022-09-06T01:03:37.159Z,60.47
2022-09-06T01:04:42.777Z,60.73
2022-09-06T01:05:57.000Z,60.91
2022-09-06T01:07:22.681Z,61.23
2022-09-06T01:08:48.203Z,61.55
2022-09-06T01:10:20.595Z,61.81
2022-09-06T01:11:45.523Z,62.13
2022-09-06T01:13:01.205Z,62.42
2022-09-06T01:14:11.882Z,63.32
2022-09-06T01:15:33.909Z,63.88
2022-09-06T01:17:01.783Z,62.65
2022-09-06T01:18:15.288Z,60.38
2022-09-06T01:19:44.697Z,58.13
2022-09-06T01:21:04.925Z,55.48
2022-09-06T01:22:47.772Z,55.12
2022-09-06T01:24:21.311Z,55.90
2022-09-06T01:25:42.871Z,56.98
2022-09-06T01:27:25.662Z,57.66
2022-09-06T01:28:46.004Z,58.52
2022-09-06T01:29:54.180Z,59.09
2022-09-06T01:31:11.661Z,59.44
2022-09-06T01:32:27.819Z,59.77
2022-09-06T01:33:43.431Z,60.24
2022-09-06T01:34:54.038Z,60.69
2022-09-06T01:36:03.122Z,61.01
2022-09-06T01:37:14.257Z,61.34
2022-09-06T01:38:17.152Z,61.62
2022-09-06T01:39:29.490Z,61.92
2022-09-06T01:40:34.990Z,62.19
2022-09-06T01:41:36.775Z,62.32
2022-09-06T01:42:42.290Z,62.52
2022-09-06T01:43:49.307Z,63.43
2022-09-06T01:45:12.564Z,63.79
2022-09-06T01:46:26.824Z,62.42
2022-09-06T01:47:38.565Z,60.55
2022-09-06T01:49:04.161Z,58.55
2022-09-06T01:50:28.196Z,55.66
2022-09-06T01:51:47.900Z,55.15
2022-09-06T01:53:34.442Z,55.88
2022-09-06T01:55:03.178Z,57.04
2022-09-06T01:56:20.665Z,58.06
2022-09-06T01:57:44.569Z,58.85
2022-09-06T01:59:06.050Z,59.33
2022-09-06T02:00:14.949Z,59.78
2022-09-06T02:01:42.530Z,60.27
2022-09-06T02:03:14.968Z,60.84
2022-09-06T02:04:32.032Z,61.36
2022-09-06T02:05:51.829Z,61.62
2022-09-06T02:07:06.084Z,61.91
2022-09-06T02:08:23.913Z,62.24
2022-09-06T02:09:32.435Z,62.96
2022-09-06T02:10:47.849Z,63.84
2022-09-06T02:11:55.402Z,63.17
2022-09-06T02:13:02.003Z,61.54
2022-09-06T02:14:14.732Z,59.78
2022-09-06T02:15:26.510Z,57.38
2022-09-06T02:16:33.039Z,55.78
2022-09-06T02:17:45.427Z,55.79
2022-09-06T02:18:59.067Z,56.42
2022-09-06T02:20:15.033Z,57.11
2022-09-06T02:21:25.125Z,57.86
2022-09-06T02:22:32.988Z,58.50
2022-09-06T02:23:40.389Z,59.04
2022-09-06T02:24:46.938Z,59.54
2022-09-06T02:25:55.782Z,60.01
2022-09-06T02:26:58.064Z,60.51
2022-09-06T02:27:59.897Z,61.00
2022-09-06T02:29:02.180Z,61.35
2022-09-06T02:30:06.130Z,61.65
2022-09-06T02:31:19.443Z,61.96
2022-09-06T02:32:26.684Z,62.36
2022-09-06T02:33:33.353Z,63.09
2022-09-06T02:34:38.802Z,64.01
2022-09-06T02:35:52.854Z,63.47
2022-09-06T02:36:55.302Z,61.81
2022-09-06T02:37:57.311Z,60.19
2022-09-06T02:39:02.137Z,58.40
2022-09-06T02:40:04.224Z,56.27
2022-09-06T02:41:07.951Z,55.67
2022-09-06T02:42:12.972Z,55.91
2022-09-06T02:43:14.676Z,56.55
2022-09-06T02:44:16.567Z,57.29
2022-09-06T02:45:18.400Z,57.95
2022-09-06T02:46:20.354Z,58.46
2022-09-06T02:47:22.082Z,58.94
2022-09-06T02:48:23.893Z,59.44
2022-09-06T02:49:25.697Z,59.88
2022-09-06T02:50:28.002Z,60.38
2022-09-06T02:51:29.824Z,60.86
2022-09-06T02:52:31.536Z,61.23
2022-09-06T02:53:33.809Z,61.60
2022-09-06T02:54:35.543Z,62.08
2022-09-06T02:55:38.126Z,62.42
2022-09-06T02:56:39.890Z,63.08
2022-09-06T02:57:41.565Z,63.88
2022-09-06T02:58:43.717Z,63.48
2022-09-06T02:59:46.254Z,62.28
2022-09-06T03:00:48.238Z,60.76
2022-09-06T03:01:49.971Z,59.16
2022-09-06T03:02:51.682Z,56.95
2022-09-06T03:03:53.425Z,55.59
2022-09-06T03:04:55.084Z,55.53
2022-09-06T03:05:56.870Z,55.99
2022-09-06T03:06:58.533Z,56.67
2022-09-06T03:08:00.540Z,57.43
2022-09-06T03:09:02.249Z,58.16
2022-09-06T03:10:04.520Z,58.83
2022-09-06T03:11:06.370Z,59.37
2022-09-06T03:12:08.132Z,59.90
2022-09-06T03:13:09.820Z,60.45
2022-09-06T03:14:11.587Z,60.93
2022-09-06T03:15:16.267Z,61.40
2022-09-06T03:16:20.111Z,61.98
2022-09-06T03:17:22.225Z,62.39
2022-09-06T03:18:29.825Z,63.11
2022-09-06T03:19:31.505Z,63.94
2022-09-06T03:20:37.003Z,63.40
2022-09-06T03:21:38.976Z,62.03
2022-09-06T03:22:41.558Z,60.43
2022-09-06T03:23:43.358Z,58.82
2022-09-06T03:24:45.028Z,56.68
2022-09-06T03:25:46.882Z,55.64
2022-09-06T03:26:48.648Z,55.75
2022-09-06T03:27:50.368Z,56.30
2022-09-06T03:28:52.066Z,57.02
2022-09-06T03:29:53.749Z,57.86
2022-09-06T03:30:55.641Z,58.61
2022-09-06T03:31:57.360Z,59.20
2022-09-06T03:33:02.562Z,59.86
2022-09-06T03:34:09.077Z,60.39
2022-09-06T03:35:12.600Z,60.95
2022-09-06T03:36:15.706Z,61.45
2022-09-06T03:37:19.392Z,61.88
2022-09-06T03:38:23.391Z,62.35
2022-09-06T03:39:25.419Z,63.28
2022-09-06T03:40:27.552Z,64.20
2022-09-06T03:41:29.255Z,63.69
2022-09-06T03:42:30.925Z,62.43
2022-09-06T03:43:32.929Z,60.80
2022-09-06T03:44:34.623Z,59.14
2022-09-06T03:45:36.323Z,56.98
2022-09-06T03:46:38.342Z,55.92
2022-09-06T03:47:40.272Z,55.93
2022-09-06T03:48:42.196Z,56.46
2022-09-06T03:49:45.302Z,57.26
2022-09-06T03:50:49.530Z,58.01
2022-09-06T03:51:52.299Z,58.70
2022-09-06T03:52:53.976Z,59.34
2022-09-06T03:53:55.804Z,60.01
2022-09-06T03:54:57.967Z,60.42
2022-09-06T03:55:59.792Z,60.87
2022-09-06T03:57:01.652Z,61.35
2022-09-06T03:58:03.363Z,61.78
2022-09-06T03:59:05.195Z,62.24
2022-09-06T04:00:07.583Z,62.93
2022-09-06T04:01:13.390Z,64.05
2022-09-06T04:02:15.870Z,63.90
2022-09-06T04:03:20.187Z,62.82
2022-09-06T04:04:22.012Z,61.47
2022-09-06T04:05:23.720Z,59.98
2022-09-06T04:06:25.431Z,58.24
2022-09-06T04:07:27.138Z,56.37
2022-09-06T04:08:29.841Z,55.88
2022-09-06T04:09:31.637Z,56.26
2022-09-06T04:10:33.891Z,56.96
2022-09-06T04:11:35.723Z,57.70
2022-09-06T04:12:37.438Z,58.48
2022-09-06T04:13:39.171Z,59.15
2022-09-06T04:14:40.967Z,59.75
2022-09-06T04:15:46.759Z,60.20
2022-09-06T04:16:50.029Z,60.78
2022-09-06T04:17:51.749Z,61.35
2022-09-06T04:18:53.532Z,61.85
2022-09-06T04:19:55.301Z,62.34
2022-09-06T04:20:57.652Z,63.04
2022-09-06T04:21:59.377Z,63.96
2022-09-06T04:23:01.132Z,63.69
2022-09-06T04:24:03.023Z,62.53
2022-09-06T04:25:05.767Z,61.11
2022-09-06T04:26:07.751Z,59.64
2022-09-06T04:27:09.472Z,57.84
2022-09-06T04:28:11.135Z,56.39
2022-09-06T04:29:12.980Z,56.24
2022-09-06T04:30:14.837Z,56.75
2022-09-06T04:31:16.534Z,57.40
2022-09-06T04:32:18.188Z,58.12
2022-09-06T04:33:20.749Z,58.83
2022-09-06T04:34:22.425Z,59.47
2022-09-06T04:35:24.293Z,60.17
2022-09-06T04:36:25.993Z,60.89
2022-09-06T04:37:27.705Z,61.39
2022-09-06T04:38:34.427Z,61.77
2022-09-06T04:39:36.194Z,62.35
2022-09-06T04:40:38.151Z,63.19
2022-09-06T04:41:40.195Z,64.03
2022-09-06T04:42:41.889Z,63.50
2022-09-06T04:43:43.574Z,62.23
2022-09-06T04:44:45.236Z,60.76
2022-09-06T04:45:47.556Z,59.28
2022-09-06T04:46:49.320Z,57.30
2022-09-06T04:47:51.541Z,56.14
2022-09-06T04:48:55.430Z,56.17
2022-09-06T04:49:57.292Z,56.75
2022-09-06T04:50:59.078Z,57.52
2022-09-06T04:52:00.763Z,58.24
2022-09-06T04:53:02.525Z,58.96
2022-09-06T04:54:04.206Z,59.60
2022-09-06T04:55:06.500Z,60.21
2022-09-06T04:56:16.053Z,60.73
2022-09-06T04:57:17.716Z,61.20
2022-09-06T04:58:19.427Z,61.57
2022-09-06T04:59:21.131Z,61.94
2022-09-06T05:00:22.841Z,62.29
2022-09-06T05:01:26.340Z,62.89
2022-09-06T05:02:28.301Z,63.87
2022-09-06T05:03:29.986Z,63.70
2022-09-06T05:04:31.790Z,62.52
2022-09-06T05:05:33.491Z,60.90
2022-09-06T05:06:35.469Z,59.38
2022-09-06T05:07:37.228Z,57.33
2022-09-06T05:08:41.026Z,55.89
2022-09-06T05:09:42.724Z,55.75
2022-09-06T05:10:44.465Z,56.18
2022-09-06T05:11:46.457Z,56.87
2022-09-06T05:12:50.253Z,57.55
2022-09-06T05:13:51.963Z,58.28
2022-09-06T05:14:53.719Z,58.88
2022-09-06T05:15:55.813Z,59.40
2022-09-06T05:16:57.685Z,59.85
2022-09-06T05:18:06.768Z,60.27
2022-09-06T05:19:08.459Z,60.88
2022-09-06T05:20:11.058Z,61.27
2022-09-06T05:21:12.820Z,61.60
2022-09-06T05:22:14.694Z,61.95
2022-09-06T05:23:16.350Z,62.27
2022-09-06T05:24:18.120Z,62.77
2022-09-06T05:25:19.845Z,63.82
2022-09-06T05:26:21.526Z,63.82
2022-09-06T05:27:23.341Z,62.88
2022-09-06T05:28:25.151Z,61.21
2022-09-06T05:29:30.486Z,59.60
2022-09-06T05:30:32.413Z,57.66
2022-09-06T05:31:35.409Z,56.10
2022-09-06T05:32:37.208Z,55.72
2022-09-06T05:33:39.203Z,55.93
2022-09-06T05:34:40.920Z,56.53
2022-09-06T05:35:42.572Z,57.23
2022-09-06T05:36:45.444Z,57.88
2022-09-06T05:37:47.191Z,58.48
2022-09-06T05:38:50.754Z,58.84
2022-09-06T05:39:52.614Z,59.27
2022-09-06T05:40:54.362Z,59.57
2022-09-06T05:41:56.106Z,60.00
2022-09-06T05:42:57.894Z,60.33
2022-09-06T05:44:00.234Z,60.75
2022-09-06T05:45:02.356Z,61.21
2022-09-06T05:46:04.204Z,61.49
2022-09-06T05:47:06.177Z,61.71
2022-09-06T05:48:08.649Z,62.06
2022-09-06T05:49:10.488Z,62.52
2022-09-06T05:50:12.509Z,63.52
2022-09-06T05:51:14.170Z,63.95
2022-09-06T05:52:17.290Z,63.10
2022-09-06T05:53:18.977Z,61.56
2022-09-06T05:54:21.049Z,59.76
2022-09-06T05:55:22.893Z,57.46
2022-09-06T05:56:24.822Z,55.65
2022-09-06T05:57:26.893Z,55.06
2022-09-06T05:58:28.684Z,55.26
2022-09-06T05:59:30.746Z,55.83
2022-09-06T06:00:32.452Z,56.60
2022-09-06T06:01:34.189Z,57.36
2022-09-06T06:02:35.985Z,57.98
2022-09-06T06:03:38.918Z,58.60
2022-09-06T06:04:40.746Z,58.92
2022-09-06T06:05:47.668Z,59.11
2022-09-06T06:06:49.571Z,59.41
2022-09-06T06:07:51.249Z,59.85
2022-09-06T06:08:53.652Z,60.15
2022-09-06T06:09:55.414Z,60.31
2022-09-06T06:11:01.894Z,60.53
2022-09-06T06:12:04.897Z,60.95
2022-09-06T06:13:06.575Z,61.23
2022-09-06T06:14:09.030Z,61.44
2022-09-06T06:15:11.233Z,61.78
2022-09-06T06:16:15.939Z,62.07
2022-09-06T06:17:17.700Z,62.25
2022-09-06T06:18:19.542Z,62.41
2022-09-06T06:19:21.317Z,63.01
2022-09-06T06:20:23.133Z,63.75
2022-09-06T06:21:25.866Z,63.17
2022-09-06T06:22:27.871Z,61.67
2022-09-06T06:23:29.566Z,59.77
2022-09-06T06:24:31.380Z,57.77
2022-09-06T06:25:33.153Z,55.79
2022-09-06T06:26:36.573Z,55.12
2022-09-06T06:27:38.294Z,55.23
2022-09-06T06:28:40.964Z,55.64
2022-09-06T06:29:42.649Z,56.10
2022-09-06T06:30:44.458Z,56.40
2022-09-06T06:31:46.295Z,56.78
2022-09-06T06:32:48.053Z,57.18
2022-09-06T06:33:50.728Z,57.76
2022-09-06T06:34:52.446Z,58.34
2022-09-06T06:36:02.631Z,58.61
2022-09-06T06:37:04.345Z,58.87
2022-09-06T06:38:06.041Z,59.14
2022-09-06T06:39:09.157Z,59.36
2022-09-06T06:40:11.025Z,59.61
2022-09-06T06:41:16.503Z,59.73
2022-09-06T06:42:18.173Z,59.87
2022-09-06T06:43:27.306Z,60.23
2022-09-06T06:44:29.456Z,60.43
2022-09-06T06:45:31.572Z,60.68
2022-09-06T06:46:36.368Z,60.83
2022-09-06T06:47:38.052Z,61.04
2022-09-06T06:48:41.354Z,61.01
2022-09-06T06:49:43.043Z,60.71
2022-09-06T06:50:44.856Z,60.69
2022-09-06T06:51:47.538Z,60.88
2022-09-06T06:52:49.346Z,61.13
2022-09-06T06:53:51.582Z,61.25
2022-09-06T06:54:53.229Z,61.36
2022-09-06T06:55:55.380Z,61.21
2022-09-06T06:56:57.028Z,60.98
2022-09-06T06:58:02.438Z,61.07
2022-09-06T06:59:06.983Z,60.94
2022-09-06T07:00:10.949Z,60.86
2022-09-06T07:01:13.899Z,60.71
2022-09-06T07:02:17.575Z,60.68
2022-09-06T07:03:19.390Z,60.70
2022-09-06T07:04:21.414Z,60.84
2022-09-06T07:08:13.150Z,61.55
2022-09-06T07:09:15.873Z,61.62
2022-09-06T07:10:33.518Z,61.58
2022-09-06T07:11:35.660Z,61.25
2022-09-06T07:12:37.349Z,60.98
2022-09-06T07:13:39.430Z,60.75
2022-09-06T07:14:41.131Z,60.67
2022-09-06T07:15:42.791Z,60.58
2022-09-06T07:16:45.547Z,60.61
2022-09-06T07:17:47.231Z,61.11
2022-09-06T07:18:53.680Z,61.25
2022-09-06T07:22:40.217Z,60.49
2022-09-06T07:25:06.248Z,59.59
2022-09-06T07:26:14.490Z,59.24
2022-09-06T07:28:37.899Z,59.28
2022-09-06T07:29:39.544Z,59.10
2022-09-06T07:30:42.164Z,59.21
2022-09-06T07:33:06.294Z,59.43
2022-09-06T07:34:07.971Z,59.04
2022-09-06T07:35:09.870Z,58.99
2022-09-06T07:36:11.570Z,58.93
2022-09-06T07:37:13.382Z,59.23
2022-09-06T07:38:15.081Z,59.53
2022-09-06T07:39:16.758Z,59.37
2022-09-06T07:40:18.473Z,59.10
2022-09-06T07:41:20.265Z,58.94
2022-09-06T07:42:22.122Z,59.15
2022-09-06T07:43:25.391Z,59.18
2022-09-06T07:44:28.806Z,59.16
2022-09-06T07:45:30.472Z,59.05
2022-09-06T07:46:32.212Z,58.58
2022-09-06T07:48:55.713Z,57.84
2022-09-06T07:51:21.561Z,57.81
2022-09-06T07:53:57.932Z,58.17
2022-09-06T07:55:04.591Z,57.79
2022-09-06T07:56:08.573Z,57.78
2022-09-06T07:57:12.092Z,57.81
2022-09-06T07:58:14.083Z,57.82
2022-09-06T07:59:15.987Z,57.38
2022-09-06T08:00:19.721Z,56.98
2022-09-06T08:01:34.377Z,56.42
2022-09-06T08:02:36.060Z,56.13
2022-09-06T08:03:37.754Z,55.93
2022-09-06T08:04:41.046Z,55.77
2022-09-06T08:09:47.964Z,54.85
2022-09-06T08:10:51.241Z,54.70
2022-09-06T08:11:53.024Z,54.30
2022-09-06T08:12:57.601Z,53.91
2022-09-06T08:14:01.398Z,54.06
2022-09-06T08:15:03.322Z,53.89
2022-09-06T08:16:08.026Z,53.51
2022-09-06T08:17:09.761Z,53.26
2022-09-06T08:18:12.010Z,53.41
2022-09-06T08:19:13.817Z,53.23
2022-09-06T08:20:16.794Z,53.16
2022-09-06T08:21:19.547Z,52.79
2022-09-06T08:22:21.363Z,52.76
2022-09-06T08:23:23.279Z,52.92
2022-09-06T08:24:25.007Z,53.08
2022-09-06T08:25:26.832Z,53.22
2022-09-06T08:26:30.756Z,52.46
2022-09-06T08:27:32.374Z,52.40
2022-09-06T08:28:34.186Z,52.11
2022-09-06T08:29:35.920Z,52.13
2022-09-06T08:30:37.710Z,52.11
2022-09-06T08:31:44.414Z,51.50
2022-09-06T08:32:46.124Z,51.66
2022-09-06T08:33:47.779Z,51.87
2022-09-06T08:34:49.717Z,51.78
2022-09-06T08:35:56.256Z,51.70
2022-09-06T08:36:57.949Z,51.49
2022-09-06T08:37:59.627Z,51.49
2022-09-06T08:39:04.890Z,51.29
2022-09-06T08:40:07.172Z,50.70
2022-09-06T08:41:14.567Z,50.82
2022-09-06T08:42:16.305Z,51.04
2022-09-06T08:43:21.090Z,50.84
2022-09-06T08:45:56.470Z,51.12
2022-09-06T08:47:02.366Z,51.34
2022-09-06T08:48:04.177Z,51.25
2022-09-06T08:49:07.031Z,50.89
2022-09-06T08:50:10.586Z,50.74
2022-09-06T08:51:58.039Z,50.58
2022-09-06T08:53:17.623Z,50.77
2022-09-06T08:54:35.691Z,51.32
2022-09-06T08:55:48.107Z,50.78
2022-09-06T08:57:13.513Z,50.72
2022-09-06T08:58:36.658Z,50.30
2022-09-06T08:59:40.878Z,50.25
2022-09-06T09:00:52.311Z,50.50
2022-09-06T09:02:04.584Z,50.97
2022-09-06T09:03:16.819Z,50.75
2022-09-06T09:04:24.459Z,50.11
2022-09-06T09:05:33.040Z,49.96
2022-09-06T09:06:35.808Z,49.47
2022-09-06T09:07:50.338Z,48.30
2022-09-06T09:09:06.028Z,48.12
2022-09-06T09:10:32.580Z,49.15
2022-09-06T09:11:36.245Z,49.33
2022-09-06T09:12:46.637Z,48.89
2022-09-06T09:13:55.629Z,48.76
2022-09-06T09:15:06.435Z,48.43
2022-09-06T09:16:08.364Z,48.37
2022-09-06T09:17:20.351Z,47.99
2022-09-06T09:18:28.047Z,47.02
2022-09-06T09:19:33.437Z,46.82
2022-09-06T09:20:35.158Z,47.48
2022-09-06T09:21:40.160Z,47.53
2022-09-06T09:22:42.161Z,47.14
2022-09-06T09:23:54.894Z,47.33
2022-09-06T09:25:00.009Z,46.89
2022-09-06T09:26:10.370Z,47.23
2022-09-06T09:27:16.774Z,47.05
2022-09-06T09:28:24.597Z,46.83
2022-09-06T09:29:29.476Z,46.79
2022-09-06T09:30:49.969Z,45.95
2022-09-06T09:31:56.075Z,45.53
2022-09-06T09:32:57.852Z,45.72
2022-09-06T09:34:02.411Z,45.43
2022-09-06T09:35:19.220Z,44.71
2022-09-06T09:36:21.804Z,44.68
2022-09-06T09:38:52.875Z,44.59
2022-09-06T09:39:58.240Z,44.75
2022-09-06T09:41:05.399Z,44.54
2022-09-06T09:42:08.286Z,44.82
2022-09-06T09:43:26.504Z,44.35
2022-09-06T09:44:29.940Z,43.99
2022-09-06T09:45:31.852Z,44.57
2022-09-06T09:46:39.702Z,44.95
2022-09-06T09:47:41.466Z,45.00
2022-09-06T09:49:04.674Z,44.95
2022-09-06T09:50:22.521Z,44.61
2022-09-06T09:51:27.715Z,44.27
2022-09-06T09:52:32.023Z,44.41
2022-09-06T09:53:33.749Z,44.60
2022-09-06T09:54:38.693Z,44.50
2022-09-06T09:55:41.916Z,43.82
2022-09-06T09:56:54.606Z,42.40
2022-09-06T09:57:56.664Z,42.56
2022-09-06T09:59:00.558Z,43.23
2022-09-06T10:00:02.694Z,43.40
2022-09-06T10:01:35.697Z,43.86
2022-09-06T10:02:40.217Z,44.23
2022-09-06T10:05:17.889Z,43.01
2022-09-06T10:07:53.698Z,42.47
2022-09-06T10:08:55.740Z,42.82
2022-09-06T10:10:00.992Z,43.17
2022-09-06T10:11:02.708Z,42.68
2022-09-06T10:12:05.067Z,42.65
2022-09-06T10:13:09.316Z,42.48
2022-09-06T10:14:13.599Z,42.50
2022-09-06T10:15:40.050Z,42.71
2022-09-06T10:16:45.456Z,43.12
2022-09-06T10:17:47.140Z,43.02
2022-09-06T10:18:52.710Z,42.98
2022-09-06T10:19:54.833Z,43.21
2022-09-06T10:21:02.332Z,43.58
2022-09-06T10:22:20.689Z,43.67
2022-09-06T10:25:00.926Z,42.38
2022-09-06T10:26:10.011Z,43.09
2022-09-06T10:27:12.620Z,43.60
2022-09-06T10:28:33.426Z,43.54
2022-09-06T10:29:48.021Z,43.40
2022-09-06T10:31:07.920Z,43.50
2022-09-06T10:32:32.662Z,42.74
2022-09-06T10:34:10.552Z,42.57
2022-09-06T10:35:30.059Z,40.59
2022-09-06T10:37:00.355Z,40.63
2022-09-06T10:38:19.561Z,41.63
2022-09-06T10:39:50.376Z,41.52
2022-09-06T10:40:58.961Z,41.72
2022-09-06T10:42:15.780Z,41.35
2022-09-06T10:43:21.011Z,42.06
2022-09-06T10:44:49.029Z,41.39
2022-09-06T10:46:09.399Z,42.03
2022-09-06T10:47:16.183Z,41.70
2022-09-06T10:48:24.002Z,41.39
2022-09-06T10:49:28.521Z,41.19
2022-09-06T10:50:54.285Z,41.99
2022-09-06T10:52:03.594Z,42.38
2022-09-06T10:53:33.643Z,42.13
2022-09-06T10:54:40.980Z,41.12
2022-09-06T10:55:50.745Z,40.41
2022-09-06T11:00:14.444Z,39.70
2022-09-06T11:01:28.496Z,39.08
2022-09-06T11:04:29.690Z,39.96
2022-09-06T11:05:41.182Z,39.49
2022-09-06T11:06:47.686Z,38.83
2022-09-06T11:09:38.475Z,38.59
2022-09-06T11:10:48.131Z,39.15
2022-09-06T11:12:33.017Z,39.68
2022-09-06T11:13:35.007Z,39.55
2022-09-06T11:14:39.264Z,39.00
2022-09-06T11:16:10.730Z,39.18
2022-09-06T11:17:28.670Z,39.32
2022-09-06T11:18:44.459Z,38.86
2022-09-06T11:20:05.895Z,39.32
2022-09-06T11:21:19.761Z,38.44
2022-09-06T11:22:30.437Z,38.17
2022-09-06T11:23:44.741Z,38.33
2022-09-06T11:25:22.624Z,38.08
2022-09-06T11:26:26.830Z,37.90
2022-09-06T11:27:40.350Z,38.11
2022-09-06T11:29:13.567Z,38.08
2022-09-06T11:30:18.117Z,38.18
2022-09-06T11:33:11.895Z,38.50
2022-09-06T11:34:30.471Z,38.36
2022-09-06T11:35:34.839Z,37.38
2022-09-06T11:36:52.830Z,36.90
2022-09-06T11:38:02.683Z,36.09
2022-09-06T11:39:08.831Z,36.31
2022-09-06T11:40:27.378Z,36.46
2022-09-06T11:41:38.490Z,36.61
2022-09-06T11:42:46.223Z,36.72
2022-09-06T11:43:51.647Z,36.63
2022-09-06T11:45:21.189Z,36.46
2022-09-06T11:46:43.096Z,36.08
2022-09-06T11:47:53.083Z,35.37
2022-09-06T11:49:04.781Z,35.40
2022-09-06T11:50:24.330Z,35.63
2022-09-06T11:51:34.382Z,35.84
2022-09-06T11:53:07.041Z,36.11
2022-09-06T11:54:14.963Z,35.40
2022-09-06T11:55:22.906Z,35.21
2022-09-06T11:56:57.089Z,35.22
2022-09-06T11:58:03.308Z,35.23
2022-09-06T11:59:17.661Z,35.27
2022-09-06T12:00:23.873Z,35.21
2022-09-06T12:01:25.466Z,34.60
2022-09-06T12:02:35.592Z,34.58
2022-09-06T12:04:06.515Z,34.86
2022-09-06T12:05:16.689Z,34.46
2022-09-06T12:06:32.217Z,34.46
2022-09-06T12:07:36.857Z,34.34
2022-09-06T12:08:38.722Z,34.04
2022-09-06T12:09:43.894Z,33.24
2022-09-06T12:10:57.297Z,33.17
2022-09-06T12:12:01.271Z,32.47
2022-09-06T12:13:41.280Z,32.50
2022-09-06T12:14:48.179Z,32.24
2022-09-06T12:15:55.448Z,32.67
2022-09-06T12:17:04.783Z,33.11
2022-09-06T12:18:06.557Z,32.76
2022-09-06T12:19:08.337Z,32.28
2022-09-06T12:20:11.236Z,32.73
2022-09-06T12:21:39.346Z,32.51
2022-09-06T12:22:46.739Z,32.12
2022-09-06T12:23:48.719Z,31.81
2022-09-06T12:24:53.866Z,31.38
2022-09-06T12:25:56.970Z,31.95
2022-09-06T12:27:31.881Z,32.44
2022-09-06T12:28:34.976Z,31.93
2022-09-06T12:29:37.050Z,31.50
2022-09-06T12:30:48.078Z,31.22
2022-09-06T12:31:56.913Z,31.12
2022-09-06T12:33:02.372Z,31.22
2022-09-06T12:34:21.271Z,30.98
2022-09-06T12:36:55.617Z,31.41
2022-09-06T12:38:03.673Z,31.13
2022-09-06T12:39:12.085Z,31.20
2022-09-06T12:40:14.333Z,32.02
2022-09-06T12:41:16.191Z,31.43
2022-09-06T12:42:19.383Z,30.37
2022-09-06T12:43:21.929Z,30.81
2022-09-06T12:44:31.709Z,30.84
2022-09-06T12:45:33.561Z,31.19
2022-09-06T12:46:36.940Z,31.03
2022-09-06T12:47:42.306Z,30.96
2022-09-06T12:49:00.422Z,30.90
2022-09-06T12:50:17.983Z,30.78
2022-09-06T12:51:20.848Z,31.00
2022-09-06T12:52:22.503Z,30.78
2022-09-06T12:53:25.414Z,30.58
2022-09-06T12:54:28.864Z,30.07
2022-09-06T12:55:37.027Z,29.51
2022-09-06T12:56:38.787Z,28.93
2022-09-06T12:57:48.528Z,29.16
2022-09-06T12:58:51.353Z,29.69
2022-09-06T12:59:57.023Z,29.64
2022-09-06T13:01:08.498Z,29.59
2022-09-06T13:02:20.610Z,29.36
2022-09-06T13:03:50.606Z,29.59
2022-09-06T13:05:01.455Z,29.85
2022-09-06T13:06:06.349Z,30.28
2022-09-06T13:07:14.681Z,30.42
2022-09-06T13:08:29.552Z,30.32
2022-09-06T13:09:33.335Z,30.10
2022-09-06T13:10:39.879Z,30.34
2022-09-06T13:11:51.493Z,30.11
2022-09-06T13:12:57.049Z,30.63
2022-09-06T13:13:59.307Z,31.45
2022-09-06T13:15:11.857Z,30.87
2022-09-06T13:16:20.316Z,29.91
2022-09-06T13:17:28.675Z,30.15
2022-09-06T13:18:39.621Z,30.14
2022-09-06T13:19:42.575Z,29.85
2022-09-06T13:20:44.285Z,29.92
2022-09-06T13:21:47.264Z,30.02
2022-09-06T13:22:51.332Z,29.78
2022-09-06T13:23:53.521Z,29.71
2022-09-06T13:24:56.310Z,29.35
2022-09-06T13:25:58.305Z,29.01
2022-09-06T13:27:00.136Z,28.95
2022-09-06T13:28:03.241Z,29.03
2022-09-06T13:29:16.766Z,28.64
2022-09-06T13:30:39.957Z,28.25
2022-09-06T13:31:46.756Z,27.49
2022-09-06T13:32:48.536Z,27.42
2022-09-06T13:33:59.942Z,27.70
2022-09-06T13:35:03.772Z,27.85
2022-09-06T13:36:11.610Z,27.64
2022-09-06T13:37:14.106Z,27.39
2022-09-06T13:38:31.098Z,27.42
2022-09-06T13:39:41.983Z,27.14
2022-09-06T13:41:09.597Z,26.86
2022-09-06T13:42:27.514Z,26.74
2022-09-06T13:43:29.387Z,27.01
2022-09-06T13:44:34.733Z,27.07
2022-09-06T13:45:36.702Z,27.08
2022-09-06T13:46:38.487Z,27.21
2022-09-06T13:47:40.213Z,26.97
2022-09-06T13:48:44.536Z,27.24
2022-09-06T13:49:47.236Z,27.40
2022-09-06T13:50:48.984Z,27.37
2022-09-06T13:51:53.468Z,27.21
2022-09-06T13:52:55.259Z,27.17
2022-09-06T13:54:09.125Z,27.14
2022-09-06T13:55:16.610Z,27.28
2022-09-06T13:56:18.298Z,27.12
2022-09-06T13:57:24.211Z,26.91
2022-09-06T13:58:27.792Z,26.78
2022-09-06T13:59:31.486Z,26.78
2022-09-06T14:00:33.404Z,26.64
2022-09-06T14:01:35.492Z,26.75
2022-09-06T14:02:37.919Z,26.10
2022-09-06T14:03:42.182Z,25.75
2022-09-06T14:04:43.886Z,25.74
2022-09-06T14:05:45.542Z,25.78
2022-09-06T14:06:48.870Z,25.68
2022-09-06T14:07:50.549Z,25.93
2022-09-06T14:09:08.459Z,26.16
2022-09-06T14:10:11.620Z,26.47
2022-09-06T14:11:16.738Z,26.41
2022-09-06T14:12:18.371Z,26.92
2022-09-06T14:13:21.096Z,26.85
2022-09-06T14:14:22.929Z,26.74
2022-09-06T14:15:25.130Z,26.83
2022-09-06T14:16:27.062Z,26.63
2022-09-06T14:17:28.830Z,26.38
2022-09-06T14:18:31.327Z,26.77
2022-09-06T14:19:33.067Z,26.69
2022-09-06T14:20:34.876Z,26.53
2022-09-06T14:21:36.598Z,26.00
2022-09-06T14:22:38.489Z,26.06
2022-09-06T14:23:40.357Z,26.15
2022-09-06T14:24:41.995Z,26.49
2022-09-06T14:25:43.657Z,26.47
2022-09-06T14:26:45.306Z,26.19
2022-09-06T14:27:48.861Z,25.93
2022-09-06T14:28:51.369Z,26.08
2022-09-06T14:29:53.087Z,25.94
2022-09-06T14:30:55.078Z,25.74
2022-09-06T14:31:56.859Z,25.75
2022-09-06T14:32:59.729Z,25.58
2022-09-06T14:34:02.695Z,25.56
2022-09-06T14:35:05.829Z,25.67
2022-09-06T14:36:10.490Z,25.83
2022-09-06T14:37:13.665Z,26.09
2022-09-06T14:38:15.946Z,26.31
2022-09-06T14:39:17.813Z,26.51
2022-09-06T14:40:19.545Z,26.47
2022-09-06T14:41:21.261Z,26.40
2022-09-06T14:42:24.607Z,26.35
2022-09-06T14:43:26.297Z,26.66
2022-09-06T14:44:28.277Z,26.71
2022-09-06T14:45:29.942Z,26.70
2022-09-06T14:46:31.909Z,26.94
2022-09-06T14:47:33.671Z,27.16
2022-09-06T14:48:40.338Z,27.28
2022-09-06T14:49:43.759Z,27.49
2022-09-06T14:50:45.388Z,27.43